sensor_id;sensor_type;location;lat;lon;timestamp;pressure;altitude;pressure_sealevel;temperature;humidity
59315;BME280;46521;50.160;20.802;2023-02-22T00:09:11;99601.41;;;4.78;71.15
59315;BME280;46521;50.160;20.802;2023-02-22T00:19:14;99613.14;;;4.74;71.14
59315;BME280;46521;50.160;20.802;2023-02-22T00:29:15;99615.30;;;4.68;71.29
59315;BME280;46521;50.160;20.802;2023-02-22T00:39:17;99618.31;;;4.64;71.64
59315;BME280;46521;50.160;20.802;2023-02-22T00:49:19;99616.11;;;4.59;71.90
59315;BME280;46521;50.160;20.802;2023-02-22T00:59:20;99619.81;;;4.57;71.92
59315;BME280;46521;50.160;20.802;2023-02-22T01:09:22;99623.64;;;4.53;72.33
59315;BME280;46521;50.160;20.802;2023-02-22T01:19:23;99624.62;;;4.51;72.39
59315;BME280;46521;50.160;20.802;2023-02-22T01:29:25;99623.47;;;4.44;72.61
59315;BME280;46521;50.160;20.802;2023-02-22T01:39:26;99624.80;;;4.39;72.53
59315;BME280;46521;50.160;20.802;2023-02-22T01:49:38;99627.55;;;4.37;72.87
59315;BME280;46521;50.160;20.802;2023-02-22T01:59:45;99636.63;;;4.33;73.37
59315;BME280;46521;50.160;20.802;2023-02-22T02:09:56;99635.09;;;4.30;73.24
59315;BME280;46521;50.160;20.802;2023-02-22T02:40:45;99632.22;;;4.33;73.42
59315;BME280;46521;50.160;20.802;2023-02-22T02:50:50;99642.51;;;4.25;73.18
59315;BME280;46521;50.160;20.802;2023-02-22T03:00:59;99644.09;;;4.17;73.92
59315;BME280;46521;50.160;20.802;2023-02-22T03:11:09;99644.34;;;4.13;74.11
59315;BME280;46521;50.160;20.802;2023-02-22T03:31:24;99654.69;;;4.15;73.91
59315;BME280;46521;50.160;20.802;2023-02-22T03:41:27;99666.83;;;4.16;74.10
59315;BME280;46521;50.160;20.802;2023-02-22T03:51:31;99662.41;;;4.17;73.90
59315;BME280;46521;50.160;20.802;2023-02-22T04:01:33;99670.64;;;4.12;74.20
59315;BME280;46521;50.160;20.802;2023-02-22T04:11:35;99677.23;;;4.06;74.25
59315;BME280;46521;50.160;20.802;2023-02-22T04:21:37;99684.60;;;4.01;74.53
59315;BME280;46521;50.160;20.802;2023-02-22T04:31:39;99689.71;;;4.03;74.73
59315;BME280;46521;50.160;20.802;2023-02-22T04:41:40;99684.60;;;4.01;74.65
59315;BME280;46521;50.160;20.802;2023-02-22T04:51:42;99690.56;;;4.03;74.83
59315;BME280;46521;50.160;20.802;2023-02-22T05:01:43;99692.70;;;3.98;75.24
59315;BME280;46521;50.160;20.802;2023-02-22T05:11:45;99694.63;;;3.96;74.80
59315;BME280;46521;50.160;20.802;2023-02-22T05:21:47;99703.45;;;3.95;75.19
59315;BME280;46521;50.160;20.802;2023-02-22T05:31:48;99700.55;;;3.98;74.61
59315;BME280;46521;50.160;20.802;2023-02-22T05:41:50;99713.64;;;3.98;74.96
59315;BME280;46521;50.160;20.802;2023-02-22T05:51:51;99733.30;;;3.92;74.76
59315;BME280;46521;50.160;20.802;2023-02-22T06:01:53;99740.45;;;3.90;75.07
59315;BME280;46521;50.160;20.802;2023-02-22T06:11:54;99748.75;;;3.95;75.04
59315;BME280;46521;50.160;20.802;2023-02-22T06:21:57;99767.52;;;4.01;75.12
59315;BME280;46521;50.160;20.802;2023-02-22T06:32:00;99773.94;;;4.08;75.23
59315;BME280;46521;50.160;20.802;2023-02-22T06:42:05;99775.34;;;4.12;75.57
59315;BME280;46521;50.160;20.802;2023-02-22T06:52:08;99786.05;;;4.20;75.07
59315;BME280;46521;50.160;20.802;2023-02-22T07:02:11;99798.23;;;4.31;75.47
59315;BME280;46521;50.160;20.802;2023-02-22T07:12:12;99803.96;;;4.36;75.63
59315;BME280;46521;50.160;20.802;2023-02-22T07:22:14;99805.84;;;4.45;75.37
59315;BME280;46521;50.160;20.802;2023-02-22T07:32:17;99802.54;;;4.64;75.22
59315;BME280;46521;50.160;20.802;2023-02-22T07:42:19;99806.64;;;4.78;74.91
59315;BME280;46521;50.160;20.802;2023-02-22T07:52:20;99808.25;;;4.91;75.39
59315;BME280;46521;50.160;20.802;2023-02-22T08:02:24;99802.94;;;5.02;75.11
59315;BME280;46521;50.160;20.802;2023-02-22T08:12:26;99808.10;;;5.13;74.45
59315;BME280;46521;50.160;20.802;2023-02-22T08:22:27;99817.30;;;5.29;74.10
59315;BME280;46521;50.160;20.802;2023-02-22T08:32:29;99819.70;;;5.41;73.71
59315;BME280;46521;50.160;20.802;2023-02-22T08:42:30;99828.08;;;5.56;72.82
59315;BME280;46521;50.160;20.802;2023-02-22T08:52:32;99815.55;;;5.70;72.73
59315;BME280;46521;50.160;20.802;2023-02-22T09:02:35;99832.16;;;5.80;71.88
59315;BME280;46521;50.160;20.802;2023-02-22T09:12:37;99827.50;;;5.93;71.49
59315;BME280;46521;50.160;20.802;2023-02-22T09:22:39;99836.63;;;5.89;70.16
59315;BME280;46521;50.160;20.802;2023-02-22T09:32:41;99832.75;;;5.93;70.52
59315;BME280;46521;50.160;20.802;2023-02-22T09:43:14;99836.06;;;5.95;70.11
59315;BME280;46521;50.160;20.802;2023-02-22T09:53:29;99827.20;;;6.27;69.39
59315;BME280;46521;50.160;20.802;2023-02-22T10:34:53;99813.52;;;6.43;68.53
59315;BME280;46521;50.160;20.802;2023-02-22T10:44:55;99813.80;;;6.50;68.04
59315;BME280;46521;50.160;20.802;2023-02-22T10:54:58;99809.25;;;6.62;66.95
59315;BME280;46521;50.160;20.802;2023-02-22T11:05:01;99808.41;;;6.71;66.83
59315;BME280;46521;50.160;20.802;2023-02-22T11:15:22;99800.80;;;6.78;66.55
59315;BME280;46521;50.160;20.802;2023-02-22T11:25:31;99801.91;;;6.85;64.76
59315;BME280;46521;50.160;20.802;2023-02-22T11:35:37;99807.97;;;6.95;65.29
59315;BME280;46521;50.160;20.802;2023-02-22T11:45:55;99795.00;;;7.31;65.74
59315;BME280;46521;50.160;20.802;2023-02-22T11:56:33;99788.25;;;7.19;65.07
59315;BME280;46521;50.160;20.802;2023-02-22T12:27:25;99790.06;;;7.18;64.05
59315;BME280;46521;50.160;20.802;2023-02-22T12:58:52;99773.77;;;7.43;63.61
59315;BME280;46521;50.160;20.802;2023-02-22T13:08:59;99787.47;;;7.09;63.76
59315;BME280;46521;50.160;20.802;2023-02-22T13:29:40;99785.56;;;6.81;63.20
59315;BME280;46521;50.160;20.802;2023-02-22T13:40:19;99787.25;;;6.73;62.74
59315;BME280;46521;50.160;20.802;2023-02-22T14:10:57;99789.18;;;6.61;62.20
59315;BME280;46521;50.160;20.802;2023-02-22T14:31:17;99789.04;;;6.82;62.43
59315;BME280;46521;50.160;20.802;2023-02-22T14:41:25;99798.16;;;6.78;61.80
59315;BME280;46521;50.160;20.802;2023-02-22T14:51:31;99800.95;;;6.57;61.69
59315;BME280;46521;50.160;20.802;2023-02-22T15:01:37;99810.76;;;6.45;62.02
59315;BME280;46521;50.160;20.802;2023-02-22T15:11:38;99798.30;;;6.27;61.99
59315;BME280;46521;50.160;20.802;2023-02-22T15:21:44;99803.28;;;6.21;62.16
59315;BME280;46521;50.160;20.802;2023-02-22T15:31:46;99805.05;;;6.10;62.87
59315;BME280;46521;50.160;20.802;2023-02-22T15:42:00;99812.64;;;6.04;62.90
59315;BME280;46521;50.160;20.802;2023-02-22T15:52:18;99811.51;;;5.97;62.60
59315;BME280;46521;50.160;20.802;2023-02-22T16:02:32;99824.19;;;5.91;62.58
59315;BME280;46521;50.160;20.802;2023-02-22T16:12:35;99825.67;;;5.84;62.60
59315;BME280;46521;50.160;20.802;2023-02-22T16:22:37;99827.61;;;5.82;63.33
59315;BME280;46521;50.160;20.802;2023-02-22T16:32:39;99836.70;;;5.78;62.78
59315;BME280;46521;50.160;20.802;2023-02-22T16:42:41;99841.78;;;5.70;63.35
59315;BME280;46521;50.160;20.802;2023-02-22T16:52:42;99841.19;;;5.56;63.13
59315;BME280;46521;50.160;20.802;2023-02-22T17:02:43;99847.86;;;5.39;63.21
59315;BME280;46521;50.160;20.802;2023-02-22T17:12:47;99852.85;;;5.21;63.11
59315;BME280;46521;50.160;20.802;2023-02-22T17:22:50;99850.81;;;5.04;62.55
59315;BME280;46521;50.160;20.802;2023-02-22T17:32:52;99856.25;;;4.91;62.37
59315;BME280;46521;50.160;20.802;2023-02-22T17:42:56;99855.08;;;4.84;62.60
59315;BME280;46521;50.160;20.802;2023-02-22T17:52:57;99845.09;;;4.78;62.38
59315;BME280;46521;50.160;20.802;2023-02-22T18:03:05;99843.09;;;4.70;62.49
59315;BME280;46521;50.160;20.802;2023-02-22T18:13:08;99853.95;;;4.65;62.48
59315;BME280;46521;50.160;20.802;2023-02-22T18:23:16;99871.97;;;4.59;63.26
59315;BME280;46521;50.160;20.802;2023-02-22T18:33:19;99881.66;;;4.36;64.22
59315;BME280;46521;50.160;20.802;2023-02-22T18:43:20;99879.44;;;4.20;64.76
59315;BME280;46521;50.160;20.802;2023-02-22T18:53:22;99875.64;;;4.01;64.42
59315;BME280;46521;50.160;20.802;2023-02-22T19:03:23;99881.98;;;3.87;65.08
59315;BME280;46521;50.160;20.802;2023-02-22T19:13:25;99895.16;;;3.63;65.50
59315;BME280;46521;50.160;20.802;2023-02-22T19:23:26;99900.97;;;3.55;65.33
59315;BME280;46521;50.160;20.802;2023-02-22T19:33:28;99898.58;;;3.41;65.54
59315;BME280;46521;50.160;20.802;2023-02-22T19:43:29;99914.81;;;3.22;65.20
59315;BME280;46521;50.160;20.802;2023-02-22T19:53:32;99920.46;;;3.04;64.81
59315;BME280;46521;50.160;20.802;2023-02-22T20:03:34;99929.08;;;2.94;65.11
59315;BME280;46521;50.160;20.802;2023-02-22T20:13:39;99932.14;;;2.87;65.53
59315;BME280;46521;50.160;20.802;2023-02-22T20:23:41;99923.29;;;2.77;65.34
59315;BME280;46521;50.160;20.802;2023-02-22T20:33:47;99931.45;;;2.73;66.03
59315;BME280;46521;50.160;20.802;2023-02-22T20:43:50;99941.84;;;2.61;65.46
59315;BME280;46521;50.160;20.802;2023-02-22T20:53:53;99938.03;;;2.54;66.09
59315;BME280;46521;50.160;20.802;2023-02-22T21:04:03;99950.16;;;2.42;65.52
59315;BME280;46521;50.160;20.802;2023-02-22T21:14:04;99941.19;;;2.33;65.80
59315;BME280;46521;50.160;20.802;2023-02-22T21:24:06;99947.48;;;2.31;66.13
59315;BME280;46521;50.160;20.802;2023-02-22T21:34:11;99957.73;;;2.21;66.04
59315;BME280;46521;50.160;20.802;2023-02-22T21:44:13;99942.18;;;2.07;66.12
59315;BME280;46521;50.160;20.802;2023-02-22T21:54:15;99954.41;;;1.93;65.81
59315;BME280;46521;50.160;20.802;2023-02-22T22:04:19;99945.53;;;1.83;66.08
59315;BME280;46521;50.160;20.802;2023-02-22T22:14:22;99938.23;;;1.75;66.28
59315;BME280;46521;50.160;20.802;2023-02-22T22:24:26;99938.75;;;1.68;66.31
59315;BME280;46521;50.160;20.802;2023-02-22T22:34:29;99944.20;;;1.65;66.42
59315;BME280;46521;50.160;20.802;2023-02-22T22:44:31;99947.95;;;1.60;66.09
59315;BME280;46521;50.160;20.802;2023-02-22T22:54:42;99950.65;;;1.46;66.02
59315;BME280;46521;50.160;20.802;2023-02-22T23:04:43;99961.48;;;1.40;66.25
59315;BME280;46521;50.160;20.802;2023-02-22T23:14:45;99954.38;;;1.42;66.35
59315;BME280;46521;50.160;20.802;2023-02-22T23:24:47;99954.59;;;1.39;66.61
59315;BME280;46521;50.160;20.802;2023-02-22T23:34:48;99958.55;;;1.32;66.38
59315;BME280;46521;50.160;20.802;2023-02-22T23:44:50;99953.09;;;1.22;66.52
